createdAt,value
2023-01-13T00:00:19.927Z,1.02
2023-01-13T00:03:13.144Z,1.45
2023-01-13T00:06:06.714Z,1.90
2023-01-13T00:09:01.201Z,3.35
2023-01-13T00:11:56.102Z,1.92
2023-01-13T00:14:49.134Z,2.78
2023-01-13T00:17:42.054Z,2.80
2023-01-13T00:20:35.011Z,1.95
2023-01-13T00:23:28.569Z,1.92
2023-01-13T00:26:26.113Z,0.82
2023-01-13T00:29:18.689Z,5.15
2023-01-13T00:32:12.171Z,1.67
2023-01-13T00:35:05.787Z,2.95
2023-01-13T00:37:58.896Z,2.25
2023-01-13T00:40:59.040Z,2.65
2023-01-13T00:43:52.267Z,6.40
2023-01-13T00:46:45.926Z,2.55
2023-01-13T00:49:38.946Z,0.93
2023-01-13T00:52:33.375Z,1.52
2023-01-13T00:55:26.937Z,1.98
2023-01-13T00:58:19.914Z,1.52
2023-01-13T01:01:16.458Z,1.80
2023-01-13T01:04:09.881Z,3.10
2023-01-13T01:07:02.701Z,1.75
2023-01-13T01:09:55.370Z,1.42
2023-01-13T01:12:48.503Z,0.93
2023-01-13T01:15:41.742Z,1.33
2023-01-13T01:18:37.815Z,2.03
2023-01-13T01:21:30.889Z,1.70
2023-01-13T01:24:23.857Z,1.13
2023-01-13T01:27:16.993Z,1.75
2023-01-13T01:30:11.417Z,4.70
2023-01-13T01:33:05.272Z,2.05
2023-01-13T01:36:01.937Z,2.50
2023-01-13T01:38:57.362Z,0.80
2023-01-13T01:42:08.251Z,2.08
2023-01-13T01:45:03.803Z,0.57
2023-01-13T01:48:00.444Z,1.08
2023-01-13T01:50:56.153Z,1.85
2023-01-13T01:53:51.625Z,0.95
2023-01-13T01:56:46.608Z,2.65
2023-01-13T01:59:40.991Z,1.60
2023-01-13T02:02:34.203Z,1.90
2023-01-13T02:05:27.228Z,0.77
2023-01-13T02:08:20.347Z,0.98
2023-01-13T02:11:51.120Z,0.90
2023-01-13T02:14:45.394Z,0.63
2023-01-13T02:18:07.268Z,1.92
2023-01-13T02:21:19.034Z,0.50
2023-01-13T02:24:54.501Z,1.15
2023-01-13T02:28:00.285Z,2.80
2023-01-13T02:31:17.865Z,0.82
2023-01-13T02:34:14.665Z,0.95
2023-01-13T02:37:13.823Z,0.73
2023-01-13T02:40:14.986Z,1.02
2023-01-13T02:43:32.737Z,2.05
2023-01-13T02:46:30.666Z,1.10
2023-01-13T02:49:32.280Z,1.45
2023-01-13T02:52:29.077Z,1.13
2023-01-13T02:55:27.000Z,2.00
2023-01-13T02:58:23.427Z,1.63
2023-01-13T03:01:18.071Z,0.95
2023-01-13T03:04:17.108Z,1.67
2023-01-13T03:07:15.285Z,1.33
2023-01-13T03:10:19.176Z,0.60
2023-01-13T03:13:27.017Z,0.57
2023-01-13T03:16:29.877Z,0.90
2023-01-13T03:19:35.123Z,0.50
2023-01-13T03:22:35.450Z,1.73
2023-01-13T03:25:32.353Z,0.82
2023-01-13T03:28:31.195Z,0.85
2023-01-13T03:31:32.062Z,1.13
2023-01-13T03:34:32.494Z,0.47
2023-01-13T03:37:30.291Z,1.13
2023-01-13T03:40:26.992Z,1.00
2023-01-13T03:43:42.467Z,0.88
2023-01-13T03:46:42.644Z,0.32
2023-01-13T03:49:43.837Z,1.27
2023-01-13T03:52:40.560Z,1.13
2023-01-13T03:55:37.137Z,0.50
2023-01-13T03:58:34.584Z,0.60
2023-01-13T04:01:32.951Z,0.50
2023-01-13T04:04:31.253Z,0.43
2023-01-13T04:07:34.285Z,1.35
2023-01-13T04:10:30.790Z,1.05
2023-01-13T04:13:27.317Z,1.30
2023-01-13T04:16:20.169Z,0.63
2023-01-13T04:19:13.228Z,1.40
2023-01-13T04:22:05.953Z,0.90
2023-01-13T04:25:00.235Z,0.52
2023-01-13T04:27:53.080Z,1.23
2023-01-13T04:30:47.252Z,0.40
2023-01-13T04:33:39.733Z,1.08
2023-01-13T04:36:32.928Z,0.73
2023-01-13T04:39:26.264Z,1.40
2023-01-13T04:42:20.734Z,0.95
2023-01-13T04:45:14.704Z,1.17
2023-01-13T04:48:08.062Z,1.48
2023-01-13T04:51:00.660Z,2.72
2023-01-13T04:53:54.292Z,2.08
2023-01-13T04:56:47.344Z,1.98
2023-01-13T04:59:42.723Z,0.30
2023-01-13T05:02:36.410Z,0.68
2023-01-13T05:05:30.257Z,0.80
2023-01-13T05:08:22.877Z,0.98
2023-01-13T05:11:33.604Z,2.08
2023-01-13T05:14:44.190Z,1.13
2023-01-13T05:17:38.889Z,2.67
2023-01-13T05:20:32.182Z,0.90
2023-01-13T05:23:51.525Z,2.40
2023-01-13T05:26:44.974Z,3.75
2023-01-13T05:29:38.395Z,1.50
2023-01-13T05:32:31.157Z,1.50
2023-01-13T05:35:25.579Z,3.40
2023-01-13T05:38:19.664Z,2.75
2023-01-13T05:41:30.527Z,1.25
2023-01-13T05:44:23.720Z,1.50
2023-01-13T05:47:17.168Z,2.33
2023-01-13T05:50:11.311Z,1.75
2023-01-13T05:53:05.837Z,1.08
2023-01-13T05:55:59.241Z,1.10
2023-01-13T05:58:52.459Z,1.42
2023-01-13T06:01:46.185Z,4.22
2023-01-13T06:04:39.118Z,1.48
2023-01-13T06:07:32.112Z,4.05
2023-01-13T06:10:30.706Z,0.75
2023-01-13T06:13:25.149Z,2.78
2023-01-13T06:16:18.344Z,0.68
2023-01-13T06:19:12.962Z,3.15
2023-01-13T06:22:13.591Z,1.67
2023-01-13T06:25:12.004Z,2.13
2023-01-13T06:28:06.545Z,1.77
2023-01-13T06:31:02.990Z,1.50
2023-01-13T06:34:01.791Z,3.20
2023-01-13T06:36:56.649Z,2.22
2023-01-13T06:39:50.392Z,1.35
2023-01-13T06:43:00.869Z,1.13
2023-01-13T06:45:57.465Z,1.33
2023-01-13T06:48:49.943Z,4.47
2023-01-13T06:51:43.610Z,2.83
2023-01-13T06:54:37.326Z,2.42
2023-01-13T06:57:30.499Z,2.17
2023-01-13T07:00:25.251Z,1.65
2023-01-13T07:03:20.672Z,2.05
2023-01-13T07:06:14.093Z,1.52
2023-01-13T07:09:07.308Z,2.38
2023-01-13T07:12:00.213Z,1.95
2023-01-13T07:15:10.794Z,2.03
2023-01-13T07:18:04.504Z,1.45
2023-01-13T07:21:00.532Z,0.70
2023-01-13T07:23:54.033Z,3.30
2023-01-13T07:26:47.220Z,1.48
2023-01-13T07:29:40.277Z,1.15
2023-01-13T07:32:33.873Z,2.85
2023-01-13T07:35:27.018Z,0.95
2023-01-13T07:38:21.786Z,2.08
2023-01-13T07:41:33.672Z,1.73
2023-01-13T07:44:27.722Z,2.15
2023-01-13T07:47:23.198Z,1.55
2023-01-13T07:50:16.880Z,2.15
2023-01-13T07:53:10.198Z,0.93
2023-01-13T07:56:07.516Z,2.10
2023-01-13T07:59:00.505Z,1.73
2023-01-13T08:01:53.738Z,1.98
2023-01-13T08:04:47.245Z,1.85
2023-01-13T08:07:40.603Z,3.58
2023-01-13T08:10:34.406Z,4.90
2023-01-13T08:13:29.026Z,2.05
2023-01-13T08:16:22.154Z,3.65
2023-01-13T08:19:15.281Z,3.83
2023-01-13T08:22:08.175Z,4.13
2023-01-13T08:25:01.298Z,5.10
2023-01-13T08:27:54.122Z,7.18
2023-01-13T08:30:48.986Z,2.47
2023-01-13T08:33:42.208Z,3.60
2023-01-13T08:36:35.524Z,5.93
2023-01-13T08:39:28.338Z,4.15
2023-01-13T08:42:21.166Z,4.93
2023-01-13T08:45:15.069Z,8.05
2023-01-13T08:48:10.435Z,3.15
2023-01-13T08:51:04.423Z,3.35
2023-01-13T08:53:57.059Z,4.18
2023-01-13T08:56:50.411Z,2.72
2023-01-13T08:59:43.724Z,2.45
2023-01-13T09:02:38.358Z,2.58
2023-01-13T09:05:32.491Z,1.65
2023-01-13T09:08:25.346Z,2.13
2023-01-13T09:11:34.385Z,2.28
2023-01-13T09:14:32.236Z,4.95
2023-01-13T09:17:25.607Z,15.57
2023-01-13T09:20:18.663Z,9.48
2023-01-13T09:23:13.913Z,8.45
2023-01-13T09:26:07.327Z,9.48
2023-01-13T09:29:00.487Z,6.28
2023-01-13T09:31:53.134Z,9.55
2023-01-13T09:35:01.235Z,8.45
2023-01-13T09:37:54.929Z,5.53
2023-01-13T09:40:50.952Z,8.82
2023-01-13T09:43:54.744Z,5.72
2023-01-13T09:46:53.221Z,6.90
2023-01-13T09:49:46.891Z,4.82
2023-01-13T09:52:41.590Z,4.10
2023-01-13T09:55:36.723Z,5.20
2023-01-13T09:58:31.611Z,6.72
2023-01-13T10:01:30.615Z,3.45
2023-01-13T10:04:23.384Z,4.03
2023-01-13T10:07:16.531Z,2.60
2023-01-13T10:10:18.117Z,2.25
2023-01-13T10:13:20.503Z,3.85
2023-01-13T10:16:27.351Z,3.00
2023-01-13T10:19:23.717Z,6.57
2023-01-13T10:22:29.371Z,6.28
2023-01-13T10:25:29.238Z,7.45
2023-01-13T10:28:23.894Z,12.05
2023-01-13T10:31:17.578Z,6.65
2023-01-13T10:34:12.004Z,9.82
2023-01-13T10:37:07.416Z,9.48
2023-01-13T10:40:03.144Z,11.90
2023-01-13T10:43:06.969Z,10.32
2023-01-13T10:46:04.314Z,10.57
2023-01-13T10:48:58.423Z,11.55
2023-01-13T10:51:52.747Z,11.45
2023-01-13T10:54:52.653Z,15.40
2023-01-13T10:57:45.301Z,12.52
2023-01-13T11:00:38.358Z,6.80
2023-01-13T11:03:41.232Z,7.80
2023-01-13T11:06:37.515Z,8.32
2023-01-13T11:09:33.653Z,8.13
2023-01-13T11:12:32.797Z,7.65
2023-01-13T11:15:34.907Z,10.25
2023-01-13T11:18:40.223Z,9.35
2023-01-13T11:21:40.179Z,11.60
2023-01-13T11:24:40.137Z,9.48
2023-01-13T11:27:43.594Z,6.38
2023-01-13T11:30:43.425Z,7.75
2023-01-13T11:33:42.775Z,7.38
2023-01-13T11:36:40.862Z,4.97
2023-01-13T11:39:46.926Z,5.32
2023-01-13T11:42:46.753Z,4.90
2023-01-13T11:45:44.814Z,4.97
2023-01-13T11:48:43.035Z,6.10
2023-01-13T11:51:41.439Z,3.80
2023-01-13T11:54:53.847Z,4.65
2023-01-13T11:58:12.460Z,5.78
2023-01-13T12:01:40.056Z,5.90
2023-01-13T12:04:42.947Z,2.53
2023-01-13T12:07:44.900Z,3.95
2023-01-13T12:10:48.926Z,4.53
2023-01-13T12:13:57.295Z,3.72
2023-01-13T12:16:51.120Z,9.70
2023-01-13T12:19:49.686Z,3.40
2023-01-13T12:22:46.049Z,4.90
2023-01-13T12:25:44.774Z,4.85
2023-01-13T12:28:45.683Z,2.92
2023-01-13T12:31:40.638Z,4.25
2023-01-13T12:34:45.724Z,6.78
2023-01-13T12:37:44.943Z,6.57
2023-01-13T12:40:51.743Z,23.10
2023-01-13T12:44:07.403Z,19.92
2023-01-13T12:47:01.538Z,13.27
2023-01-13T12:50:31.714Z,14.73
2023-01-13T12:53:34.876Z,12.93
2023-01-13T12:56:36.559Z,6.03
2023-01-13T12:59:36.453Z,10.57
2023-01-13T13:02:31.868Z,6.38
2023-01-13T13:05:51.059Z,9.82
2023-01-13T13:09:03.612Z,6.43
2023-01-13T13:12:16.282Z,5.57
2023-01-13T13:15:21.405Z,7.53
2023-01-13T13:18:27.508Z,12.27
2023-01-13T13:21:20.659Z,7.85
2023-01-13T13:24:13.842Z,6.35
2023-01-13T13:27:19.994Z,5.57
2023-01-13T13:30:17.172Z,4.32
2023-01-13T13:33:22.887Z,8.00
2023-01-13T13:36:45.565Z,7.43
2023-01-13T13:39:59.558Z,4.63
2023-01-13T13:43:16.140Z,5.22
2023-01-13T13:46:48.360Z,6.00
2023-01-13T13:49:44.962Z,4.35
2023-01-13T13:52:43.095Z,4.93
2023-01-13T13:55:38.584Z,4.45
2023-01-13T13:58:36.895Z,5.00
2023-01-13T14:01:37.481Z,6.13
2023-01-13T14:04:33.449Z,4.10
2023-01-13T14:07:28.040Z,4.57
2023-01-13T14:10:24.629Z,3.08
2023-01-13T14:13:21.604Z,9.23
2023-01-13T14:16:16.921Z,3.40
2023-01-13T14:19:29.119Z,2.35
2023-01-13T14:22:23.033Z,4.85
2023-01-13T14:25:29.402Z,4.82
2023-01-13T14:28:26.447Z,4.38
2023-01-13T14:31:21.276Z,6.40
2023-01-13T14:34:31.024Z,4.70
2023-01-13T14:37:37.538Z,3.35
2023-01-13T14:40:46.852Z,3.13
2023-01-13T14:43:44.933Z,4.10
2023-01-13T14:46:42.135Z,4.43
2023-01-13T14:49:38.911Z,2.42
2023-01-13T14:52:34.400Z,3.83
2023-01-13T14:55:32.767Z,2.10
2023-01-13T14:58:28.244Z,5.03
2023-01-13T15:01:30.636Z,3.00
2023-01-13T15:04:28.112Z,2.15
2023-01-13T15:07:27.062Z,5.78
2023-01-13T15:10:22.259Z,3.45
2023-01-13T15:13:26.306Z,3.03
2023-01-13T15:16:23.494Z,3.40
2023-01-13T15:19:17.249Z,1.70
2023-01-13T15:22:12.199Z,1.80
2023-01-13T15:25:06.797Z,2.78
2023-01-13T15:28:00.264Z,2.72
2023-01-13T15:30:55.840Z,1.55
2023-01-13T15:33:50.275Z,2.50
2023-01-13T15:36:43.653Z,1.67
2023-01-13T15:39:38.187Z,3.10
2023-01-13T15:43:00.285Z,1.60
2023-01-13T15:46:16.536Z,1.20
2023-01-13T15:49:16.252Z,5.18
2023-01-13T15:52:19.882Z,3.55
2023-01-13T15:55:14.923Z,2.63
2023-01-13T15:58:08.483Z,1.45
2023-01-13T16:01:02.048Z,1.90
2023-01-13T16:03:56.564Z,3.75
2023-01-13T16:06:49.734Z,2.10
2023-01-13T16:09:42.747Z,1.10
2023-01-13T16:12:37.615Z,2.00
2023-01-13T16:15:30.606Z,2.60
2023-01-13T16:18:24.768Z,1.65
2023-01-13T16:21:19.124Z,3.17
2023-01-13T16:24:12.678Z,1.90
2023-01-13T16:27:12.103Z,1.10
2023-01-13T16:30:09.565Z,2.08
2023-01-13T16:33:03.540Z,2.08
2023-01-13T16:36:10.225Z,1.50
2023-01-13T16:39:06.417Z,3.88
2023-01-13T16:42:00.024Z,2.38
2023-01-13T16:44:53.673Z,2.50
2023-01-13T16:47:48.974Z,2.15
2023-01-13T16:50:43.806Z,3.03
2023-01-13T16:53:36.650Z,1.25
2023-01-13T16:56:31.702Z,1.98
2023-01-13T16:59:24.944Z,2.28
2023-01-13T17:02:20.204Z,1.42
2023-01-13T17:05:15.702Z,1.27
2023-01-13T17:08:11.236Z,1.58
2023-01-13T17:11:04.823Z,1.85
2023-01-13T17:13:57.669Z,1.00
2023-01-13T17:16:52.630Z,2.40
2023-01-13T17:19:46.600Z,1.95
2023-01-13T17:22:42.475Z,2.17
2023-01-13T17:25:36.621Z,3.75
2023-01-13T17:28:29.369Z,1.67
2023-01-13T17:31:22.584Z,2.13
2023-01-13T17:34:15.957Z,3.22
2023-01-13T17:37:09.920Z,0.82
2023-01-13T17:40:04.404Z,2.38
2023-01-13T17:42:58.115Z,1.88
2023-01-13T17:45:52.527Z,2.97
2023-01-13T17:48:45.756Z,2.70
2023-01-13T17:51:38.613Z,1.88
2023-01-13T17:54:31.638Z,0.93
2023-01-13T17:57:26.092Z,1.95
2023-01-13T18:00:20.332Z,2.10
2023-01-13T18:03:14.165Z,1.80
2023-01-13T18:06:09.520Z,1.17
2023-01-13T18:09:02.700Z,0.75
2023-01-13T18:11:55.754Z,0.63
2023-01-13T18:14:50.024Z,1.52
2023-01-13T18:17:42.656Z,2.47
2023-01-13T18:20:53.343Z,1.60
2023-01-13T18:24:03.755Z,1.80
2023-01-13T18:27:14.235Z,0.93
2023-01-13T18:30:10.936Z,0.80
2023-01-13T18:33:04.233Z,1.42
2023-01-13T18:35:57.815Z,1.80
2023-01-13T18:38:51.218Z,0.90
2023-01-13T18:42:02.709Z,3.40
2023-01-13T18:44:57.198Z,1.70
2023-01-13T18:47:52.548Z,1.15
2023-01-13T18:50:45.936Z,1.30
2023-01-13T18:53:38.676Z,2.67
2023-01-13T18:56:31.855Z,1.05
2023-01-13T18:59:25.259Z,1.42
2023-01-13T19:02:20.447Z,0.55
2023-01-13T19:05:15.512Z,1.35
2023-01-13T19:08:09.886Z,1.02
2023-01-13T19:11:05.562Z,1.98
2023-01-13T19:13:58.679Z,0.70
2023-01-13T19:16:51.962Z,2.03
2023-01-13T19:19:47.050Z,1.85
2023-01-13T19:22:41.368Z,0.70
2023-01-13T19:25:35.942Z,0.45
2023-01-13T19:28:29.495Z,0.77
2023-01-13T19:31:23.086Z,0.82
2023-01-13T19:34:17.031Z,1.10
2023-01-13T19:37:10.275Z,1.58
2023-01-13T19:40:09.057Z,1.15
2023-01-13T19:43:19.387Z,1.58
2023-01-13T19:46:13.366Z,0.45
2023-01-13T19:49:06.660Z,1.80
2023-01-13T19:51:59.848Z,2.00
2023-01-13T19:54:53.021Z,0.95
2023-01-13T19:57:47.195Z,1.45
2023-01-13T20:00:47.000Z,0.68
2023-01-13T20:03:39.666Z,0.88
2023-01-13T20:06:33.336Z,1.58
2023-01-13T20:09:26.713Z,0.93
2023-01-13T20:12:21.226Z,1.23
2023-01-13T20:15:16.200Z,1.23
2023-01-13T20:18:10.415Z,2.70
2023-01-13T20:21:04.497Z,1.55
2023-01-13T20:23:57.816Z,0.93
2023-01-13T20:26:50.692Z,0.40
2023-01-13T20:29:43.759Z,1.65
2023-01-13T20:32:38.734Z,1.25
2023-01-13T20:35:31.782Z,1.60
2023-01-13T20:38:24.981Z,0.50
2023-01-13T20:41:46.915Z,1.38
2023-01-13T20:44:39.640Z,0.50
2023-01-13T20:47:33.343Z,1.23
2023-01-13T20:50:28.313Z,1.77
2023-01-13T20:53:24.256Z,1.38
2023-01-13T20:56:17.705Z,0.90
2023-01-13T20:59:10.887Z,0.60
2023-01-13T21:02:04.556Z,0.63
2023-01-13T21:04:58.165Z,1.55
2023-01-13T21:07:52.930Z,1.70
2023-01-13T21:10:46.002Z,2.03
2023-01-13T21:13:58.444Z,1.15
2023-01-13T21:16:51.951Z,2.10
2023-01-13T21:19:43.439Z,1.73
2023-01-13T21:22:37.112Z,2.20
2023-01-13T21:25:31.412Z,2.25
2023-01-13T21:28:25.165Z,1.75
2023-01-13T21:31:19.025Z,1.30
2023-01-13T21:34:14.327Z,0.50
2023-01-13T21:37:07.641Z,1.33
2023-01-13T21:40:01.510Z,1.25
2023-01-13T21:43:13.160Z,0.65
2023-01-13T21:46:30.219Z,1.10
2023-01-13T21:49:23.461Z,1.02
2023-01-13T21:52:17.213Z,1.00
2023-01-13T21:55:25.096Z,1.42
2023-01-13T21:58:20.408Z,2.25
2023-01-13T22:01:14.072Z,1.63
2023-01-13T22:04:15.628Z,0.70
2023-01-13T22:07:08.798Z,1.30
2023-01-13T22:10:02.466Z,2.08
2023-01-13T22:12:58.030Z,1.00
2023-01-13T22:15:52.692Z,1.27
2023-01-13T22:18:45.933Z,1.90
2023-01-13T22:21:39.009Z,1.45
2023-01-13T22:24:32.107Z,1.67
2023-01-13T22:27:28.702Z,1.65
2023-01-13T22:30:22.183Z,1.23
2023-01-13T22:33:16.612Z,2.08
2023-01-13T22:36:10.877Z,2.33
2023-01-13T22:39:04.698Z,0.75
2023-01-13T22:41:58.034Z,1.23
2023-01-13T22:44:50.975Z,1.30
2023-01-13T22:47:43.861Z,1.30
2023-01-13T22:50:38.163Z,1.17
2023-01-13T22:53:31.096Z,2.05
2023-01-13T22:56:26.936Z,2.05
2023-01-13T22:59:21.835Z,1.45
2023-01-13T23:02:14.921Z,0.65
2023-01-13T23:05:08.796Z,0.90
2023-01-13T23:08:03.236Z,1.20
2023-01-13T23:11:01.895Z,1.55
2023-01-13T23:13:59.679Z,0.98
2023-01-13T23:16:52.960Z,1.42
2023-01-13T23:19:45.725Z,0.47
2023-01-13T23:22:40.616Z,0.65
2023-01-13T23:25:35.471Z,0.85
2023-01-13T23:28:29.188Z,1.60
2023-01-13T23:31:23.298Z,2.05
2023-01-13T23:34:16.220Z,0.90
2023-01-13T23:37:09.128Z,1.40
2023-01-13T23:40:02.333Z,1.00
2023-01-13T23:42:57.476Z,1.20
2023-01-13T23:45:51.226Z,1.58
2023-01-13T23:48:44.086Z,1.23
2023-01-13T23:51:37.161Z,1.67
2023-01-13T23:54:30.279Z,1.75
2023-01-13T23:57:23.080Z,0.50
